sensor_id;sensor_type;location;lat;lon;timestamp;pressure;altitude;pressure_sealevel;temperature;humidity
26839;BME280;40088;51.214;6.786;2024-03-23T00:56:55;100723.19;;;16.31;61.57
26839;BME280;40088;51.214;6.786;2024-03-23T01:06:55;100716.84;;;16.30;61.58
26839;BME280;40088;51.214;6.786;2024-03-23T01:16:55;100694.00;;;16.30;61.50
26839;BME280;40088;51.214;6.786;2024-03-23T01:26:56;100704.16;;;16.29;61.46
26839;BME280;40088;51.214;6.786;2024-03-23T01:36:56;100704.16;;;16.29;61.35
26839;BME280;40088;51.214;6.786;2024-03-23T01:46:56;100706.06;;;16.29;61.21
26839;BME280;40088;51.214;6.786;2024-03-23T01:56:56;100706.06;;;16.29;61.14
26839;BME280;40088;51.214;6.786;2024-03-23T02:06:57;100686.81;;;16.29;61.30
26839;BME280;40088;51.214;6.786;2024-03-23T02:16:57;100664.81;;;16.29;60.92
26839;BME280;40088;51.214;6.786;2024-03-23T02:26:58;100650.38;;;16.27;60.97
26839;BME280;40088;51.214;6.786;2024-03-23T02:36:58;100665.81;;;16.28;60.71
26839;BME280;40088;51.214;6.786;2024-03-23T02:46:58;100682.31;;;16.28;60.69
26839;BME280;40088;51.214;6.786;2024-03-23T02:56:58;100663.28;;;16.26;60.56
26839;BME280;40088;51.214;6.786;2024-03-23T03:06:59;100667.72;;;16.27;60.50
26839;BME280;40088;51.214;6.786;2024-03-23T03:17:00;100648.69;;;16.26;60.56
26839;BME280;40088;51.214;6.786;2024-03-23T03:27:00;100659.47;;;16.27;60.43
26839;BME280;40088;51.214;6.786;2024-03-23T03:37:01;100658.84;;;16.25;60.36
26839;BME280;40088;51.214;6.786;2024-03-23T03:47:01;100656.94;;;16.26;60.51
26839;BME280;40088;51.214;6.786;2024-03-23T03:57:01;100648.69;;;16.26;60.27
26839;BME280;40088;51.214;6.786;2024-03-23T04:07:02;100660.72;;;16.25;60.31
26839;BME280;40088;51.214;6.786;2024-03-23T04:17:03;100654.19;;;16.26;60.33
26839;BME280;40088;51.214;6.786;2024-03-23T04:27:03;100656.94;;;16.26;60.34
26839;BME280;40088;51.214;6.786;2024-03-23T04:37:03;100655.22;;;16.25;60.52
26839;BME280;40088;51.214;6.786;2024-03-23T04:47:04;100655.22;;;16.25;60.19
26839;BME280;40088;51.214;6.786;2024-03-23T04:57:06;100646.97;;;16.25;60.33
26839;BME280;40088;51.214;6.786;2024-03-23T05:07:06;100644.22;;;16.25;60.36
26839;BME280;40088;51.214;6.786;2024-03-23T05:17:06;100655.22;;;16.25;60.10
26839;BME280;40088;51.214;6.786;2024-03-23T05:27:07;100669.84;;;16.25;60.10
26839;BME280;40088;51.214;6.786;2024-03-23T05:37:07;100660.72;;;16.25;60.21
26839;BME280;40088;51.214;6.786;2024-03-23T05:47:07;100657.97;;;16.25;60.11
26839;BME280;40088;51.214;6.786;2024-03-23T05:57:09;100665.38;;;16.24;60.22
26839;BME280;40088;51.214;6.786;2024-03-23T06:07:09;100675.53;;;16.24;60.04
26839;BME280;40088;51.214;6.786;2024-03-23T06:17:13;100689.28;;;16.24;60.00
26839;BME280;40088;51.214;6.786;2024-03-23T06:27:14;100690.13;;;16.24;60.14
26839;BME280;40088;51.214;6.786;2024-03-23T06:37:14;100676.38;;;16.24;59.73
26839;BME280;40088;51.214;6.786;2024-03-23T06:47:14;100685.69;;;16.23;59.94
26839;BME280;40088;51.214;6.786;2024-03-23T06:57:14;100689.28;;;16.24;59.82
26839;BME280;40088;51.214;6.786;2024-03-23T07:07:15;100704.03;;;16.23;59.94
26839;BME280;40088;51.214;6.786;2024-03-23T07:17:15;100707.69;;;16.23;59.77
26839;BME280;40088;51.214;6.786;2024-03-23T07:27:15;100707.69;;;16.23;59.77
26839;BME280;40088;51.214;6.786;2024-03-23T07:37:16;100695.78;;;16.23;59.84
26839;BME280;40088;51.214;6.786;2024-03-23T07:47:16;100709.38;;;16.24;59.78
26839;BME280;40088;51.214;6.786;2024-03-23T07:57:16;100708.53;;;16.24;59.65
26839;BME280;40088;51.214;6.786;2024-03-23T08:07:17;100704.03;;;16.23;59.81
26839;BME280;40088;51.214;6.786;2024-03-23T08:17:17;100706.78;;;16.23;59.88
26839;BME280;40088;51.214;6.786;2024-03-23T08:27:17;100704.03;;;16.23;59.66
26839;BME280;40088;51.214;6.786;2024-03-23T08:37:17;100707.69;;;16.23;59.63
26839;BME280;40088;51.214;6.786;2024-03-23T08:47:18;100708.69;;;16.22;59.61
26839;BME280;40088;51.214;6.786;2024-03-23T08:57:18;100722.44;;;16.22;59.75
26839;BME280;40088;51.214;6.786;2024-03-23T09:07:18;100714.41;;;16.21;59.47
26839;BME280;40088;51.214;6.786;2024-03-23T09:17:18;100719.25;;;16.19;58.51
26839;BME280;40088;51.214;6.786;2024-03-23T09:27:20;100723.00;;;16.18;58.15
26839;BME280;40088;51.214;6.786;2024-03-23T09:37:20;100711.38;;;16.15;57.79
26839;BME280;40088;51.214;6.786;2024-03-23T09:47:20;100708.63;;;16.15;57.14
26839;BME280;40088;51.214;6.786;2024-03-23T09:57:21;100691.47;;;16.13;56.60
26839;BME280;40088;51.214;6.786;2024-03-23T10:07:21;100698.88;;;16.13;56.25
26839;BME280;40088;51.214;6.786;2024-03-23T10:17:25;100690.81;;;16.11;55.70
26839;BME280;40088;51.214;6.786;2024-03-23T10:27:25;100696.28;;;16.11;55.69
26839;BME280;40088;51.214;6.786;2024-03-23T10:37:26;100760.56;;;16.10;55.66
26839;BME280;40088;51.214;6.786;2024-03-23T10:47:26;100747.88;;;16.09;55.47
26839;BME280;40088;51.214;6.786;2024-03-23T10:57:36;100758.88;;;16.09;55.63
26839;BME280;40088;51.214;6.786;2024-03-23T11:07:37;100751.69;;;16.08;55.14
26839;BME280;40088;51.214;6.786;2024-03-23T11:17:38;100736.19;;;16.07;55.48
26839;BME280;40088;51.214;6.786;2024-03-23T11:27:38;100726.94;;;16.08;55.22
26839;BME280;40088;51.214;6.786;2024-03-23T11:37:39;100713.19;;;16.08;55.01
26839;BME280;40088;51.214;6.786;2024-03-23T11:47:39;100698.78;;;16.06;55.15
26839;BME280;40088;51.214;6.786;2024-03-23T11:57:39;100743.59;;;16.07;54.93
26839;BME280;40088;51.214;6.786;2024-03-23T12:07:39;100720.75;;;16.06;54.72
26839;BME280;40088;51.214;6.786;2024-03-23T12:17:40;100729.19;;;16.05;54.94
26839;BME280;40088;51.214;6.786;2024-03-23T12:27:41;100723.72;;;16.05;54.61
26839;BME280;40088;51.214;6.786;2024-03-23T12:37:41;100710.16;;;16.03;54.99
26839;BME280;40088;51.214;6.786;2024-03-23T12:47:41;100712.91;;;16.03;54.62
26839;BME280;40088;51.214;6.786;2024-03-23T12:57:42;100699.16;;;16.03;54.27
26839;BME280;40088;51.214;6.786;2024-03-23T13:07:42;100691.97;;;16.02;54.29
26839;BME280;40088;51.214;6.786;2024-03-23T13:17:42;100762.75;;;16.00;53.62
26839;BME280;40088;51.214;6.786;2024-03-23T13:27:42;100697.84;;;15.99;53.32
26839;BME280;40088;51.214;6.786;2024-03-23T13:37:43;100680.31;;;16.00;53.49
26839;BME280;40088;51.214;6.786;2024-03-23T13:47:43;100667.59;;;15.99;53.67
26839;BME280;40088;51.214;6.786;2024-03-23T13:57:44;100662.13;;;15.99;53.58
26839;BME280;40088;51.214;6.786;2024-03-23T14:07:44;100654.72;;;16.00;53.77
26839;BME280;40088;51.214;6.786;2024-03-23T14:17:44;100655.56;;;16.00;53.92
26839;BME280;40088;51.214;6.786;2024-03-23T14:27:45;100644.56;;;16.00;54.05
26839;BME280;40088;51.214;6.786;2024-03-23T14:37:46;100678.59;;;15.99;53.89
26839;BME280;40088;51.214;6.786;2024-03-23T14:47:47;100642.03;;;15.99;53.34
26839;BME280;40088;51.214;6.786;2024-03-23T14:57:48;100647.53;;;15.99;53.57
26839;BME280;40088;51.214;6.786;2024-03-23T15:07:48;100633.78;;;15.99;53.42
26839;BME280;40088;51.214;6.786;2024-03-23T15:17:48;100623.00;;;15.97;53.29
26839;BME280;40088;51.214;6.786;2024-03-23T15:27:49;100611.13;;;15.97;53.18
26839;BME280;40088;51.214;6.786;2024-03-23T15:37:50;100612.00;;;15.97;53.07
26839;BME280;40088;51.214;6.786;2024-03-23T15:47:50;100614.75;;;15.97;52.86
26839;BME280;40088;51.214;6.786;2024-03-23T15:57:50;100598.25;;;15.97;53.11
26839;BME280;40088;51.214;6.786;2024-03-23T16:07:51;100595.50;;;15.97;53.19
26839;BME280;40088;51.214;6.786;2024-03-23T16:17:51;100573.53;;;15.97;53.09
26839;BME280;40088;51.214;6.786;2024-03-23T16:27:52;100568.88;;;15.98;53.25
26839;BME280;40088;51.214;6.786;2024-03-23T16:37:52;100566.13;;;15.98;53.23
26839;BME280;40088;51.214;6.786;2024-03-23T16:47:53;100567.16;;;15.97;53.19
26839;BME280;40088;51.214;6.786;2024-03-23T16:57:53;100565.28;;;15.97;53.28
26839;BME280;40088;51.214;6.786;2024-03-23T17:07:53;100559.78;;;15.97;52.95
26839;BME280;40088;51.214;6.786;2024-03-23T17:17:56;100555.31;;;15.96;52.69
26839;BME280;40088;51.214;6.786;2024-03-23T17:27:57;100573.53;;;15.97;52.75
26839;BME280;40088;51.214;6.786;2024-03-23T17:37:57;100603.75;;;15.97;52.71
26839;BME280;40088;51.214;6.786;2024-03-23T17:47:58;100587.25;;;15.97;52.97
26839;BME280;40088;51.214;6.786;2024-03-23T17:57:58;100564.41;;;15.97;53.12
26839;BME280;40088;51.214;6.786;2024-03-23T18:08:00;100568.03;;;15.97;53.21
26839;BME280;40088;51.214;6.786;2024-03-23T18:18:01;100571.78;;;15.96;53.45
26839;BME280;40088;51.214;6.786;2024-03-23T18:28:01;100577.97;;;15.98;53.63
26839;BME280;40088;51.214;6.786;2024-03-23T18:38:01;100576.06;;;15.99;53.69
26839;BME280;40088;51.214;6.786;2024-03-23T18:48:01;100570.56;;;15.99;53.85
26839;BME280;40088;51.214;6.786;2024-03-23T18:58:02;100558.72;;;15.98;53.99
26839;BME280;40088;51.214;6.786;2024-03-23T19:08:03;100559.56;;;15.99;53.96
26839;BME280;40088;51.214;6.786;2024-03-23T19:18:03;100554.94;;;15.99;53.85
26839;BME280;40088;51.214;6.786;2024-03-23T19:28:04;100532.09;;;15.99;53.85
26839;BME280;40088;51.214;6.786;2024-03-23T19:38:05;100539.28;;;16.00;54.10
26839;BME280;40088;51.214;6.786;2024-03-23T19:48:06;100537.38;;;16.00;54.03
26839;BME280;40088;51.214;6.786;2024-03-23T19:58:09;100531.91;;;16.00;54.18
26839;BME280;40088;51.214;6.786;2024-03-23T20:08:09;100529.16;;;16.00;53.97
26839;BME280;40088;51.214;6.786;2024-03-23T20:18:10;100516.47;;;15.99;54.09
26839;BME280;40088;51.214;6.786;2024-03-23T20:28:10;100505.47;;;15.99;54.13
26839;BME280;40088;51.214;6.786;2024-03-23T20:38:10;100504.41;;;16.00;54.38
26839;BME280;40088;51.214;6.786;2024-03-23T20:48:10;100507.16;;;16.00;54.26
26839;BME280;40088;51.214;6.786;2024-03-23T20:58:12;100496.16;;;16.00;54.43
26839;BME280;40088;51.214;6.786;2024-03-23T21:08:13;100487.91;;;16.00;54.25
26839;BME280;40088;51.214;6.786;2024-03-23T21:18:13;100489.63;;;16.01;54.34
26839;BME280;40088;51.214;6.786;2024-03-23T21:28:14;100480.53;;;16.01;54.51
26839;BME280;40088;51.214;6.786;2024-03-23T21:38:14;100475.03;;;16.01;54.27
26839;BME280;40088;51.214;6.786;2024-03-23T21:48:14;100465.94;;;16.00;54.50
26839;BME280;40088;51.214;6.786;2024-03-23T21:58:15;100460.22;;;16.02;54.43
26839;BME280;40088;51.214;6.786;2024-03-23T22:08:15;100456.63;;;16.01;54.43
26839;BME280;40088;51.214;6.786;2024-03-23T22:18:16;100455.78;;;16.01;54.42
26839;BME280;40088;51.214;6.786;2024-03-23T22:28:16;100459.38;;;16.01;54.37
26839;BME280;40088;51.214;6.786;2024-03-23T22:38:18;100438.25;;;16.02;54.38
26839;BME280;40088;51.214;6.786;2024-03-23T22:48:18;100430.22;;;16.00;54.30
26839;BME280;40088;51.214;6.786;2024-03-23T22:58:19;100415.41;;;16.01;54.36
26839;BME280;40088;51.214;6.786;2024-03-23T23:08:19;100423.88;;;16.00;54.36
26839;BME280;40088;51.214;6.786;2024-03-23T23:18:20;100404.63;;;16.00;54.29
26839;BME280;40088;51.214;6.786;2024-03-23T23:28:20;100395.53;;;15.99;54.06
26839;BME280;40088;51.214;6.786;2024-03-23T23:38:20;100374.41;;;16.00;53.97
26839;BME280;40088;51.214;6.786;2024-03-23T23:48:22;100359.81;;;15.99;53.83
26839;BME280;40088;51.214;6.786;2024-03-23T23:58:23;100352.63;;;15.98;54.00
